Time;durP1;ratioP1;P1;durP2;ratioP2;P2;SDS_P1;SDS_P2;PMS_P1;PMS_P2;Temp;Humidity;BMP_temperature;BMP_pressure;BME280_temperature;BME280_humidity;BME280_pressure;Samples;Min_cycle;Max_cycle;Signal;HPM_P1;HPM_P2
2023/04/20 00:01:09;;;;;;;9.13;3.53;;;4.00;1.00;;;;;;4987419;28;20725;-51
2023/04/20 00:03:36;;;;;;;8.60;3.28;;;3.90;1.00;;;;;;4997096;28;20398;-51
2023/04/20 00:06:02;;;;;;;9.98;3.58;;;3.90;1.80;;;;;;4994602;28;21208;-51
2023/04/20 00:08:28;;;;;;;8.95;3.97;;;4.40;1.00;;;;;;4999365;28;20523;-51
2023/04/20 00:10:54;;;;;;;10.07;4.33;;;3.90;1.00;;;;;;5003781;28;20398;-51
2023/04/20 00:13:19;;;;;;;15.77;4.00;;;5.30;51.00;;;;;;4986094;28;20403;-51
2023/04/20 00:15:45;;;;;;;10.05;3.70;;;4.90;23.90;;;;;;4994476;28;20758;-51
2023/04/20 00:18:10;;;;;;;11.57;4.33;;;5.70;91.60;;;;;;5006511;28;20397;-51
2023/04/20 00:20:37;;;;;;;12.25;5.13;;;6.00;99.90;;;;;;4988381;28;20457;-51
2023/04/20 00:23:03;;;;;;;13.63;5.80;;;3.70;99.90;;;;;;5002220;28;20424;-50
2023/04/20 00:25:30;;;;;;;17.40;6.60;;;3.70;99.90;;;;;;5003812;28;20970;-51
2023/04/20 00:27:56;;;;;;;12.95;5.57;;;5.10;1.00;;;;;;4993033;28;20472;-50
2023/04/20 00:30:22;;;;;;;13.52;6.32;;;3.80;1.00;;;;;;5010384;28;20397;-50
2023/04/20 00:32:47;;;;;;;13.93;5.90;;;3.90;1.00;;;;;;5008797;28;20420;-50
2023/04/20 00:35:13;;;;;;;13.10;5.60;;;4.00;99.90;;;;;;5002097;28;21117;-50
2023/04/20 00:37:38;;;;;;;15.43;5.82;;;5.50;99.90;;;;;;5001785;28;20392;-52
2023/04/20 00:40:05;;;;;;;12.17;5.77;;;4.40;99.90;;;;;;5009584;28;20808;-51
2023/04/20 00:42:32;;;;;;;14.30;5.38;;;3.90;99.90;;;;;;4991508;28;20422;-52
2023/04/20 00:44:57;;;;;;;12.27;5.18;;;3.90;14.20;;;;;;4987056;28;20728;-50
2023/04/20 00:47:23;;;;;;;10.67;4.73;;;3.90;99.90;;;;;;5010573;28;20447;-51
2023/04/20 00:49:50;;;;;;;11.65;4.78;;;4.00;42.80;;;;;;5008492;28;20443;-50
2023/04/20 00:52:16;;;;;;;11.10;4.35;;;3.90;84.40;;;;;;4993506;28;20895;-50
2023/04/20 00:54:41;;;;;;;9.15;4.40;;;4.40;99.90;;;;;;4997629;28;20440;-51
2023/04/20 00:57:07;;;;;;;10.27;3.90;;;4.00;1.00;;;;;;4991893;28;20426;-50
2023/04/20 00:59:33;;;;;;;10.00;4.20;;;3.90;1.00;;;;;;5001878;28;20812;-50
2023/04/20 01:01:59;;;;;;;10.48;3.90;;;3.80;1.00;;;;;;4996235;28;20401;-50
2023/04/20 01:04:25;;;;;;;10.70;4.60;;;3.80;1.00;;;;;;5009584;28;20480;-51
2023/04/20 01:06:51;;;;;;;10.77;4.80;;;3.70;68.90;;;;;;4996839;28;20389;-50
2023/04/20 01:09:16;;;;;;;9.27;4.53;;;3.70;99.90;;;;;;5008231;28;20476;-51
2023/04/20 01:11:42;;;;;;;13.60;4.90;;;3.70;57.50;;;;;;5008841;28;20907;-50
2023/04/20 01:14:07;;;;;;;10.70;4.37;;;3.70;36.80;;;;;;5002309;28;20406;-50
2023/04/20 01:16:35;;;;;;;11.98;3.95;;;3.70;99.90;;;;;;4990468;28;20609;-50
2023/04/20 01:19:01;;;;;;;11.32;4.90;;;5.80;99.90;;;;;;5005279;28;20416;-50
2023/04/20 01:21:26;;;;;;;10.52;4.55;;;3.70;99.90;;;;;;5003441;28;20453;-50
2023/04/20 01:23:52;;;;;;;10.27;4.97;;;5.80;99.90;;;;;;4990385;28;20413;-50
2023/04/20 01:26:19;;;;;;;11.13;4.57;;;4.20;28.90;;;;;;4991636;28;20387;-50
2023/04/20 01:28:45;;;;;;;11.48;4.80;;;3.70;1.00;;;;;;5002893;28;20404;-50
2023/04/20 01:31:12;;;;;;;9.87;4.43;;;3.70;1.70;;;;;;5008962;28;20798;-50
2023/04/20 01:33:38;;;;;;;12.13;4.90;;;4.40;1.00;;;;;;5008820;28;20916;-51
2023/04/20 01:36:05;;;;;;;10.90;4.70;;;5.10;1.00;;;;;;5009267;28;20525;-50
2023/04/20 01:38:33;;;;;;;10.65;4.07;;;3.70;3.30;;;;;;5009744;28;20429;-50
2023/04/20 01:41:03;;;;;;;13.40;4.20;;;3.70;1.00;;;;;;5009516;28;20381;-50
2023/04/20 01:43:29;;;;;;;10.60;4.80;;;3.70;1.00;;;;;;5010067;28;20439;-50
2023/04/20 01:45:54;;;;;;;10.90;4.60;;;5.60;1.00;;;;;;5009455;28;20397;-50
2023/04/20 01:48:20;;;;;;;11.93;5.10;;;3.60;51.90;;;;;;5008837;28;20476;-50
2023/04/20 01:50:50;;;;;;;10.95;4.72;;;3.40;99.90;;;;;;5009552;28;20481;-50
2023/04/20 01:53:16;;;;;;;9.70;4.50;;;3.30;99.90;;;;;;5009264;28;20420;-51
2023/04/20 01:55:42;;;;;;;11.75;4.78;;;3.30;1.00;;;;;;5009567;28;20818;-50
2023/04/20 01:58:08;;;;;;;9.50;4.50;;;3.20;1.00;;;;;;5004336;28;20449;-51
2023/04/20 02:00:33;;;;;;;12.35;5.00;;;3.10;99.90;;;;;;4992479;28;20416;-51
2023/04/20 02:02:59;;;;;;;11.90;4.90;;;3.10;99.90;;;;;;5008189;28;20401;-50
2023/04/20 02:05:25;;;;;;;12.95;4.75;;;5.20;1.00;;;;;;5008935;28;20455;-51
2023/04/20 02:07:51;;;;;;;8.30;4.13;;;3.20;99.90;;;;;;5008677;28;20400;-51
2023/04/20 02:10:17;;;;;;;9.37;4.00;;;3.20;99.90;;;;;;5006733;28;20403;-50
2023/04/20 02:12:42;;;;;;;9.48;4.70;;;3.10;1.00;;;;;;4999770;28;20413;-50
2023/04/20 02:15:08;;;;;;;10.55;4.47;;;3.10;1.00;;;;;;4995330;28;20420;-50
2023/04/20 02:17:35;;;;;;;12.07;4.80;;;3.00;1.00;;;;;;4990494;28;20399;-52
2023/04/20 02:20:06;;;;;;;9.80;4.50;;;3.10;65.00;;;;;;4995149;28;20421;-51
2023/04/20 02:22:33;;;;;;;11.65;4.80;;;3.10;34.00;;;;;;5008504;28;20439;-50
2023/04/20 02:25:00;;;;;;;9.05;4.30;;;3.20;99.90;;;;;;5003828;28;20429;-51
2023/04/20 02:27:27;;;;;;;8.38;3.80;;;3.30;17.80;;;;;;5001544;28;20480;-51
2023/04/20 02:29:52;;;;;;;12.35;4.53;;;3.30;1.00;;;;;;4993109;28;20819;-51
2023/04/20 02:32:18;;;;;;;9.47;4.53;;;3.30;1.00;;;;;;4990309;28;20422;-50
2023/04/20 02:34:43;;;;;;;10.77;4.40;;;3.30;1.00;;;;;;4990157;28;20398;-50
2023/04/20 02:37:09;;;;;;;10.63;4.27;;;5.50;1.00;;;;;;4996119;28;20393;-50
2023/04/20 02:39:35;;;;;;;10.90;4.60;;;4.70;99.90;;;;;;5007199;28;20769;-50
2023/04/20 02:42:00;;;;;;;15.50;4.70;;;4.70;99.90;;;;;;4988276;28;20451;-50
2023/04/20 02:44:26;;;;;;;12.60;4.60;;;3.40;99.90;;;;;;4997842;28;20483;-50
2023/04/20 02:46:51;;;;;;;10.45;4.75;;;3.40;1.00;;;;;;5007788;28;20397;-50
2023/04/20 02:49:17;;;;;;;12.93;4.70;;;3.10;1.00;;;;;;4988597;28;20493;-51
2023/04/20 02:51:43;;;;;;;11.13;4.20;;;3.00;1.00;;;;;;4999755;28;20487;-50
2023/04/20 02:54:08;;;;;;;13.55;5.78;;;3.00;99.90;;;;;;5007171;28;20479;-50
2023/04/20 02:56:34;;;;;;;16.67;5.97;;;5.20;99.90;;;;;;4989656;28;20391;-50
2023/04/20 02:59:00;;;;;;;13.25;5.50;;;3.00;1.00;;;;;;4997726;28;20462;-50
2023/04/20 03:01:26;;;;;;;18.25;6.85;;;3.00;1.00;;;;;;4993083;28;20908;-50
2023/04/20 03:03:52;;;;;;;15.00;5.43;;;3.00;99.90;;;;;;5008556;28;20424;-50
2023/04/20 03:06:18;;;;;;;14.30;6.00;;;3.00;1.00;;;;;;4992060;28;20672;-50
2023/04/20 03:08:44;;;;;;;11.68;4.90;;;3.50;99.90;;;;;;4992838;28;20423;-50
2023/04/20 03:11:09;;;;;;;11.30;4.77;;;3.00;99.90;;;;;;5006887;28;20392;-50
2023/04/20 03:13:35;;;;;;;10.15;4.53;;;2.80;30.80;;;;;;4996050;28;20526;-49
2023/04/20 03:16:01;;;;;;;9.65;4.80;;;2.70;99.90;;;;;;5007362;28;20389;-50
2023/04/20 03:18:26;;;;;;;11.43;4.77;;;4.00;1.00;;;;;;5008554;28;20377;-50
2023/04/20 03:20:52;;;;;;;10.27;4.57;;;2.60;1.00;;;;;;5008174;28;20450;-49
2023/04/20 03:23:18;;;;;;;11.50;5.45;;;4.10;6.30;;;;;;5007482;28;20373;-49
2023/04/20 03:25:45;;;;;;;10.87;5.07;;;2.70;1.00;;;;;;5007984;28;20442;-49
2023/04/20 03:28:10;;;;;;;14.05;6.50;;;2.70;1.00;;;;;;5007393;28;20424;-50
2023/04/20 03:30:36;;;;;;;15.02;5.90;;;2.60;1.00;;;;;;5004982;28;20437;-49
2023/04/20 03:33:02;;;;;;;14.13;6.40;;;4.60;1.00;;;;;;5003996;28;20737;-49
2023/04/20 03:35:27;;;;;;;12.55;5.50;;;2.60;1.00;;;;;;5008016;28;20385;-49
2023/04/20 03:37:53;;;;;;;13.30;5.53;;;2.60;1.00;;;;;;5007253;28;20385;-49
2023/04/20 03:40:18;;;;;;;11.73;5.60;;;2.70;1.00;;;;;;5006248;28;20412;-49
2023/04/20 03:42:44;;;;;;;14.48;5.90;;;2.70;99.90;;;;;;4987842;28;20402;-49
2023/04/20 03:45:10;;;;;;;12.43;5.77;;;3.40;1.00;;;;;;4985935;28;20405;-49
2023/04/20 03:47:36;;;;;;;14.60;6.20;;;2.50;37.60;;;;;;4988533;28;20386;-50
2023/04/20 03:50:03;;;;;;;12.37;5.13;;;2.50;1.00;;;;;;5007001;28;20389;-50
2023/04/20 03:52:28;;;;;;;10.68;5.20;;;2.50;1.00;;;;;;5002019;28;20395;-49
2023/04/20 03:54:54;;;;;;;13.03;5.10;;;2.50;99.90;;;;;;4995174;28;20389;-49
2023/04/20 03:57:20;;;;;;;11.27;5.10;;;2.40;99.90;;;;;;4996663;28;20460;-50
2023/04/20 03:59:45;;;;;;;10.05;4.93;;;3.50;1.00;;;;;;5001789;28;20425;-50
2023/04/20 04:02:12;;;;;;;15.00;5.18;;;2.80;1.00;;;;;;5001765;28;20389;-50
2023/04/20 04:04:38;;;;;;;11.85;5.22;;;2.10;28.50;;;;;;5000861;28;20971;-50
2023/04/20 04:07:04;;;;;;;13.90;5.00;;;2.10;99.90;;;;;;4999150;28;20412;-50
2023/04/20 04:09:29;;;;;;;10.93;5.35;;;2.00;1.00;;;;;;5007941;28;20404;-49
2023/04/20 04:11:56;;;;;;;10.50;5.10;;;2.20;1.00;;;;;;5001775;28;20397;-49
2023/04/20 04:14:22;;;;;;;13.00;5.88;;;2.20;1.00;;;;;;4996895;28;20413;-50
2023/04/20 04:16:47;;;;;;;12.50;5.55;;;2.20;99.90;;;;;;4996808;28;20396;-50
2023/04/20 04:19:13;;;;;;;11.37;5.43;;;2.20;1.00;;;;;;4990328;28;20422;-50
2023/04/20 04:21:38;;;;;;;17.80;5.85;;;2.10;49.20;;;;;;4997278;28;20510;-49
2023/04/20 04:24:04;;;;;;;12.45;6.57;;;2.00;1.00;;;;;;4994752;28;20400;-49
2023/04/20 04:26:30;;;;;;;12.30;5.43;;;2.10;1.00;;;;;;5007393;28;20403;-49
2023/04/20 04:28:56;;;;;;;13.03;5.50;;;2.10;1.00;;;;;;4996825;28;20410;-49
2023/04/20 04:31:23;;;;;;;12.68;5.97;;;2.20;99.90;;;;;;5004794;28;20427;-49
2023/04/20 04:33:49;;;;;;;11.38;4.90;;;2.20;1.00;;;;;;4991199;28;20382;-49
2023/04/20 04:36:14;;;;;;;12.30;5.25;;;2.20;1.00;;;;;;5005753;28;20757;-49
2023/04/20 04:38:43;;;;;;;14.20;6.07;;;2.20;1.00;;;;;;4991229;28;20438;-49
2023/04/20 04:41:11;;;;;;;14.75;7.25;;;2.20;1.00;;;;;;4994765;28;20540;-49
2023/04/20 04:43:41;;;;;;;14.00;6.47;;;2.20;1.00;;;;;;4997838;28;20410;-49
2023/04/20 04:46:11;;;;;;;12.40;5.20;;;2.10;1.00;;;;;;5007689;28;20397;-50
2023/04/20 04:48:39;;;;;;;14.27;6.07;;;2.20;99.90;;;;;;5008217;28;20419;-50
2023/04/20 04:51:05;;;;;;;13.95;5.32;;;2.40;1.00;;;;;;5005012;28;20400;-50
2023/04/20 04:53:31;;;;;;;13.32;5.90;;;2.60;22.20;;;;;;5006716;28;20451;-50
2023/04/20 04:55:56;;;;;;;11.05;5.63;;;2.90;99.90;;;;;;5010156;28;20691;-50
2023/04/20 04:58:22;;;;;;;9.83;5.00;;;3.10;1.00;;;;;;5011290;28;20417;-50
2023/04/20 05:00:48;;;;;;;11.05;5.22;;;3.40;1.00;;;;;;5009126;28;20428;-50
2023/04/20 05:03:13;;;;;;;11.87;5.33;;;4.10;1.00;;;;;;5004235;28;20449;-50
2023/04/20 05:05:39;;;;;;;10.93;4.43;;;4.10;1.00;;;;;;5010069;28;20397;-50
2023/04/20 05:08:05;;;;;;;10.93;4.50;;;4.20;99.90;;;;;;4998632;28;20410;-50
2023/04/20 05:10:30;;;;;;;13.27;4.87;;;4.20;80.60;;;;;;4999306;28;20396;-51
2023/04/20 05:12:57;;;;;;;10.27;4.70;;;5.10;1.00;;;;;;5008650;28;20396;-50
2023/04/20 05:15:23;;;;;;;10.53;5.20;;;4.10;1.00;;;;;;5003785;28;20900;-50
2023/04/20 05:17:49;;;;;;;12.60;5.50;;;4.00;1.00;;;;;;5005247;28;20393;-50
2023/04/20 05:20:15;;;;;;;10.30;4.70;;;6.00;72.20;;;;;;5002120;28;20501;-51
2023/04/20 05:22:42;;;;;;;10.30;4.80;;;4.70;99.90;;;;;;5005751;28;20461;-50
2023/04/20 05:25:08;;;;;;;12.15;5.40;;;5.10;1.00;;;;;;4993884;28;20410;-51
2023/04/20 05:27:34;;;;;;;13.35;5.38;;;5.40;99.90;;;;;;5007451;28;20865;-51
2023/04/20 05:29:59;;;;;;;11.20;4.67;;;6.30;99.90;;;;;;5010139;28;20396;-50
2023/04/20 05:32:25;;;;;;;9.30;4.43;;;5.70;81.60;;;;;;5009982;28;20385;-51
2023/04/20 05:34:50;;;;;;;13.70;4.83;;;6.00;99.90;;;;;;5008918;28;20397;-51
2023/04/20 05:37:16;;;;;;;11.38;5.20;;;6.70;62.60;;;;;;5008420;28;20827;-51
2023/04/20 05:39:42;;;;;;;11.40;5.00;;;7.30;1.00;;;;;;5009793;28;20444;-51
2023/04/20 05:42:07;;;;;;;12.30;5.03;;;7.90;1.00;;;;;;5041359;28;20407;-51
2023/04/20 05:44:35;;;;;;;12.40;4.67;;;8.60;1.00;;;;;;5042193;28;20893;-51
2023/04/20 05:47:01;;;;;;;13.23;5.30;;;8.70;1.00;;;;;;5010027;28;20480;-51
2023/04/20 05:49:27;;;;;;;14.20;5.35;;;8.90;1.00;;;;;;5010079;28;20408;-52
2023/04/20 05:51:52;;;;;;;10.73;5.20;;;9.50;1.00;;;;;;5009927;28;20397;-51
2023/04/20 05:54:18;;;;;;;11.50;5.30;;;10.70;99.90;;;;;;5008969;28;20385;-52
2023/04/20 05:56:43;;;;;;;9.23;4.77;;;12.20;99.90;;;;;;5010202;28;20391;-51
2023/04/20 05:59:09;;;;;;;10.97;5.23;;;13.10;99.90;;;;;;5008834;28;20723;-51
2023/04/20 06:01:35;;;;;;;10.40;5.70;;;14.00;99.90;;;;;;5010238;28;20574;-52
2023/04/20 06:04:01;;;;;;;12.70;6.57;;;;;;;;;;5011795;28;20402;-52
2023/04/20 06:06:27;;;;;;;10.98;7.30;;;14.90;99.90;;;;;;5014677;28;20429;-52
2023/04/20 06:08:53;;;;;;;12.43;7.90;;;15.30;99.90;;;;;;5027007;28;20542;-52
2023/04/20 06:11:19;;;;;;;11.77;8.27;;;14.70;99.90;;;;;;5009342;28;20408;-51
2023/04/20 06:13:45;;;;;;;11.38;7.97;;;14.50;99.90;;;;;;5014013;28;20395;-52
2023/04/20 06:16:10;;;;;;;12.45;7.57;;;13.80;99.90;;;;;;5027372;28;20395;-51
2023/04/20 06:18:36;;;;;;;11.57;7.00;;;13.60;99.90;;;;;;5029264;28;20398;-51
2023/04/20 06:21:03;;;;;;;11.33;7.60;;;13.70;99.90;;;;;;5028321;28;20914;-52
2023/04/20 06:23:28;;;;;;;14.18;7.80;;;14.10;99.90;;;;;;5015142;28;20427;-52
2023/04/20 06:25:54;;;;;;;11.13;7.27;;;14.30;99.90;;;;;;5009350;28;20815;-52
2023/04/20 06:28:20;;;;;;;11.07;7.53;;;14.30;99.90;;;;;;5008655;28;20415;-52
2023/04/20 06:30:45;;;;;;;12.90;7.40;;;14.00;99.90;;;;;;5009179;28;20385;-52
2023/04/20 06:33:15;;;;;;;11.20;7.53;;;14.40;99.90;;;;;;5008734;28;20476;-52
2023/04/20 06:35:42;;;;;;;12.07;7.70;;;14.30;99.90;;;;;;5009430;28;20388;-52
2023/04/20 06:38:08;;;;;;;11.80;7.78;;;15.00;99.90;;;;;;5007781;28;20512;-52
2023/04/20 06:40:33;;;;;;;11.65;9.57;;;16.10;99.90;;;;;;5022989;28;20419;-52
2023/04/20 06:42:59;;;;;;;13.23;10.50;;;17.30;99.90;;;;;;5029104;28;20436;-52
2023/04/20 06:45:25;;;;;;;13.17;7.33;;;17.60;99.90;;;;;;5015447;28;20399;-52
2023/04/20 06:47:50;;;;;;;11.90;5.93;;;18.10;99.90;;;;;;5009372;28;20377;-52
2023/04/20 06:50:16;;;;;;;10.10;5.50;;;18.60;99.90;;;;;;5008119;28;20389;-52
2023/04/20 06:52:42;;;;;;;10.50;5.40;;;18.80;99.90;;;;;;5009222;28;20727;-52
2023/04/20 06:55:08;;;;;;;11.43;6.05;;;18.30;99.90;;;;;;5039762;28;20405;-52
2023/04/20 06:57:34;;;;;;;13.70;5.60;;;18.20;99.90;;;;;;5008688;28;20442;-52
2023/04/20 07:00:00;;;;;;;12.13;6.85;;;17.80;99.90;;;;;;5008392;28;20870;-53
2023/04/20 07:02:26;;;;;;;10.27;5.80;;;17.70;99.90;;;;;;5007911;28;20513;-53
2023/04/20 07:04:51;;;;;;;10.35;5.40;;;18.60;99.90;;;;;;5008459;28;20460;-52
2023/04/20 07:07:17;;;;;;;10.35;5.40;;;19.20;99.90;;;;;;5007315;28;20384;-52
2023/04/20 07:09:42;;;;;;;11.10;5.30;;;19.30;99.90;;;;;;5008727;28;20444;-52
2023/04/20 07:12:10;;;;;;;11.18;6.07;;;19.10;99.90;;;;;;5007578;28;20389;-52
2023/04/20 07:14:35;;;;;;;11.52;9.25;;;18.80;99.90;;;;;;5021494;28;20380;-52
2023/04/20 07:17:01;;;;;;;11.15;7.80;;;19.00;99.90;;;;;;5028107;28;20749;-53
2023/04/20 07:19:26;;;;;;;12.15;9.63;;;19.00;99.90;;;;;;5027841;28;20417;-53
2023/04/20 07:21:52;;;;;;;14.30;12.13;;;19.60;99.90;;;;;;5028319;28;20476;-53
2023/04/20 07:24:18;;;;;;;13.50;7.70;;;19.50;99.90;;;;;;5027305;28;20386;-53
2023/04/20 07:26:43;;;;;;;10.87;7.83;;;19.10;99.90;;;;;;5026664;28;20902;-53
2023/04/20 07:29:09;;;;;;;11.07;6.10;;;19.30;99.90;;;;;;5027510;28;20398;-53
2023/04/20 07:31:35;;;;;;;11.90;5.63;;;19.20;99.90;;;;;;5029690;28;20387;-53
2023/04/20 07:34:00;;;;;;;13.15;10.65;;;19.80;99.90;;;;;;5014678;28;20466;-53
2023/04/20 07:36:26;;;;;;;11.82;7.90;;;20.50;99.90;;;;;;5011526;28;20862;-53
2023/04/20 07:38:52;;;;;;;13.18;6.30;;;21.00;99.90;;;;;;5011662;28;20432;-53
2023/04/20 07:41:18;;;;;;;11.80;7.47;;;20.40;99.90;;;;;;5011533;28;20472;-53
2023/04/20 07:43:43;;;;;;;15.20;10.00;;;20.10;99.90;;;;;;5012219;28;20464;-53
2023/04/20 07:46:09;;;;;;;16.42;12.98;;;18.90;99.90;;;;;;5011245;28;20430;-52
2023/04/20 07:48:35;;;;;;;14.30;12.20;;;17.30;99.90;;;;;;5012480;28;20389;-52
2023/04/20 07:51:01;;;;;;;14.48;11.43;;;16.30;99.90;;;;;;5012421;28;20385;-52
2023/04/20 07:53:28;;;;;;;13.03;10.47;;;15.30;99.90;;;;;;5011514;28;20392;-53
2023/04/20 07:55:54;;;;;;;13.07;10.57;;;14.80;99.90;;;;;;5011798;28;20487;-53
2023/04/20 07:58:20;;;;;;;14.93;10.70;;;15.80;99.90;;;;;;5010048;28;21000;-53
2023/04/20 08:00:46;;;;;;;14.48;10.90;;;16.20;99.90;;;;;;5011757;28;20466;-53
2023/04/20 08:03:13;;;;;;;13.38;9.80;;;17.20;99.90;;;;;;5011323;28;20385;-52
2023/04/20 08:05:39;;;;;;;16.42;10.55;;;18.60;99.90;;;;;;5012212;28;20396;-52
2023/04/20 08:08:05;;;;;;;13.25;10.13;;;18.90;99.90;;;;;;5009927;28;20412;-52
2023/04/20 08:10:31;;;;;;;13.40;10.80;;;18.70;99.90;;;;;;5012055;28;20480;-52
2023/04/20 08:12:58;;;;;;;12.50;10.75;;;18.60;99.90;;;;;;5012292;28;20824;-52
2023/04/20 08:15:23;;;;;;;16.40;11.20;;;18.20;99.90;;;;;;5030774;28;20390;-53
2023/04/20 08:17:49;;;;;;;15.27;10.73;;;17.40;99.90;;;;;;5026432;28;20389;-54
2023/04/20 08:20:15;;;;;;;13.13;10.35;;;17.00;99.90;;;;;;5009706;28;20444;-52
2023/04/20 08:22:40;;;;;;;14.95;10.50;;;17.10;99.90;;;;;;5011179;28;20385;-53
2023/04/20 08:25:06;;;;;;;14.73;9.83;;;15.80;99.90;;;;;;5011093;28;20385;-53
2023/04/20 08:27:32;;;;;;;12.27;9.40;;;14.90;99.90;;;;;;5011899;28;20874;-53
2023/04/20 08:29:58;;;;;;;13.13;9.10;;;14.10;99.90;;;;;;5011434;28;20387;-52
2023/04/20 08:32:25;;;;;;;14.07;9.70;;;13.70;99.90;;;;;;5010782;28;20626;-52
2023/04/20 08:34:54;;;;;;;13.68;8.82;;;12.90;99.90;;;;;;5010109;28;20404;-52
2023/04/20 08:37:20;;;;;;;13.20;8.45;;;12.50;99.90;;;;;;5010995;28;20507;-53
2023/04/20 08:39:46;;;;;;;14.57;7.90;;;11.70;99.90;;;;;;5011072;28;20960;-52
2023/04/20 08:42:11;;;;;;;15.10;7.47;;;11.30;99.90;;;;;;5010175;28;20399;-52
2023/04/20 08:44:37;;;;;;;12.90;6.90;;;10.80;99.90;;;;;;5010190;28;20478;-52
2023/04/20 08:47:03;;;;;;;12.85;6.90;;;10.60;99.90;;;;;;5011066;28;20410;-52
2023/04/20 08:49:29;;;;;;;14.60;6.67;;;10.20;99.90;;;;;;5010900;28;20477;-52
2023/04/20 08:51:55;;;;;;;12.70;6.00;;;9.70;99.90;;;;;;5010869;28;20491;-52
2023/04/20 08:54:21;;;;;;;14.20;6.65;;;9.40;99.90;;;;;;5010113;28;20784;-51
2023/04/20 08:56:47;;;;;;;13.15;6.40;;;9.20;99.90;;;;;;5011415;28;20515;-53
2023/04/20 08:59:14;;;;;;;13.40;6.50;;;9.20;99.90;;;;;;5010157;28;20432;-52
2023/04/20 09:01:43;;;;;;;13.47;5.90;;;9.10;99.90;;;;;;5010829;28;20818;-53
2023/04/20 09:04:25;;;;;;;14.93;6.97;;;9.20;99.90;;;;;;5010281;28;20385;-53
2023/04/20 09:06:52;;;;;;;13.30;6.28;;;9.20;99.90;;;;;;5010877;28;20401;-52
2023/04/20 09:09:20;;;;;;;16.30;6.18;;;9.30;99.90;;;;;;5009740;28;20877;-52
2023/04/20 09:11:46;;;;;;;13.13;5.53;;;9.40;99.90;;;;;;5010679;28;20431;-52
2023/04/20 09:14:17;;;;;;;14.90;6.97;;;9.30;99.90;;;;;;5019481;28;20379;-52
2023/04/20 09:16:59;;;;;;;12.93;6.97;;;9.30;99.90;;;;;;5030345;28;20816;-52
2023/04/20 09:19:25;;;;;;;14.73;6.95;;;9.40;99.90;;;;;;5029222;28;20522;-52
2023/04/20 09:21:54;;;;;;;12.90;6.60;;;9.60;99.90;;;;;;5029811;28;20394;-53
2023/04/20 09:24:21;;;;;;;15.40;6.80;;;9.70;99.90;;;;;;5027591;28;20751;-52
2023/04/20 09:26:47;;;;;;;15.45;6.75;;;9.70;99.90;;;;;;5029807;28;20423;-52
2023/04/20 09:29:22;;;;;;;15.87;7.00;;;9.70;99.90;;;;;;5027712;28;20426;-52
2023/04/20 09:31:49;;;;;;;13.55;7.22;;;9.80;99.90;;;;;;5029567;28;20442;-52
2023/04/20 09:34:15;;;;;;;12.02;5.93;;;9.70;99.90;;;;;;5028550;28;20449;-53
2023/04/20 09:36:43;;;;;;;11.43;6.03;;;9.60;99.90;;;;;;5029587;28;20849;-52
2023/04/20 09:39:10;;;;;;;14.40;6.30;;;9.70;99.90;;;;;;5028320;28;20481;-52
2023/04/20 09:41:39;;;;;;;15.52;7.20;;;9.70;99.90;;;;;;5029760;28;20391;-53
2023/04/20 09:44:06;;;;;;;14.75;6.40;;;9.70;99.90;;;;;;5029258;28;20383;-52
2023/04/20 09:46:34;;;;;;;13.70;6.30;;;9.90;99.90;;;;;;5029880;28;20865;-52
2023/04/20 09:49:03;;;;;;;13.85;6.30;;;9.90;99.90;;;;;;5027768;28;20818;-53
2023/04/20 09:51:30;;;;;;;10.93;5.20;;;9.80;99.90;;;;;;5019412;28;20405;-52
2023/04/20 09:53:58;;;;;;;11.93;5.70;;;9.70;99.90;;;;;;5008300;28;20420;-52
2023/04/20 09:56:25;;;;;;;12.33;5.53;;;9.80;99.90;;;;;;5007908;28;20396;-52
2023/04/20 09:58:51;;;;;;;13.98;6.30;;;9.80;99.90;;;;;;5008287;28;20421;-52
2023/04/20 10:01:17;;;;;;;11.13;5.30;;;9.80;99.90;;;;;;5003347;28;20764;-52
2023/04/20 10:03:44;;;;;;;11.35;5.35;;;9.90;99.90;;;;;;5006686;28;20484;-52
2023/04/20 10:06:28;;;;;;;14.50;5.80;;;10.00;99.90;;;;;;5008689;28;20377;-52
2023/04/20 10:08:54;;;;;;;11.52;5.65;;;10.10;99.90;;;;;;5007799;28;20980;-52
2023/04/20 10:11:37;;;;;;;11.45;5.13;;;10.20;99.90;;;;;;5008641;28;20393;-52
2023/04/20 10:14:16;;;;;;;12.43;5.75;;;10.10;99.90;;;;;;5016760;28;20444;-52
2023/04/20 10:16:42;;;;;;;15.73;5.70;;;9.90;99.90;;;;;;5029122;28;20478;-51
2023/04/20 10:19:08;;;;;;;12.50;6.30;;;9.90;99.90;;;;;;5016980;28;20717;-52
2023/04/20 10:21:45;;;;;;;11.32;5.65;;;9.90;99.90;;;;;;4989721;28;20383;-52
2023/04/20 10:24:10;;;;;;;13.27;6.68;;;10.10;99.90;;;;;;4994929;28;20819;-52
2023/04/20 10:26:38;;;;;;;11.43;5.90;;;10.20;99.90;;;;;;4989424;28;20399;-53
2023/04/20 10:29:05;;;;;;;13.13;6.53;;;10.40;99.90;;;;;;4989526;28;20421;-53
2023/04/20 10:31:41;;;;;;;14.68;5.80;;;10.40;99.90;;;;;;5008332;28;20422;-52
2023/04/20 10:34:07;;;;;;;12.40;5.72;;;10.00;99.90;;;;;;5006736;28;20423;-52
2023/04/20 10:36:37;;;;;;;12.07;6.28;;;10.00;99.90;;;;;;5009288;28;20818;-54
2023/04/20 10:39:17;;;;;;;12.90;5.82;;;10.10;99.90;;;;;;4992700;28;20537;-52
2023/04/20 10:42:00;;;;;;;13.45;6.10;;;10.20;99.90;;;;;;4989232;28;20449;-52
2023/04/20 10:44:26;;;;;;;12.38;6.20;;;10.30;99.90;;;;;;4988472;28;20460;-52
2023/04/20 10:46:53;;;;;;;11.73;6.00;;;10.20;99.90;;;;;;4989349;28;20469;-52
2023/04/20 10:49:24;;;;;;;10.95;5.20;;;10.20;99.90;;;;;;4998383;28;20401;-52
2023/04/20 10:51:51;;;;;;;13.67;6.70;;;9.90;99.90;;;;;;5008842;28;20877;-52
2023/04/20 10:54:17;;;;;;;12.82;6.28;;;9.90;99.90;;;;;;5008410;28;20459;-52
2023/04/20 10:56:53;;;;;;;12.77;6.30;;;10.00;99.90;;;;;;5008798;28;21008;-52
2023/04/20 10:59:20;;;;;;;15.82;6.50;;;9.90;99.90;;;;;;5007670;28;20541;-52
2023/04/20 11:01:47;;;;;;;11.15;5.57;;;9.70;99.90;;;;;;5008589;28;20421;-52
2023/04/20 11:04:14;;;;;;;13.00;4.38;;;9.50;99.90;;;;;;5007657;28;20472;-52
2023/04/20 11:06:41;;;;;;;10.20;4.65;;;9.30;99.90;;;;;;5008299;28;20455;-52
2023/04/20 11:09:18;;;;;;;10.13;5.03;;;9.20;99.90;;;;;;5008090;28;20408;-53
2023/04/20 11:11:44;;;;;;;11.60;4.70;;;9.00;99.90;;;;;;5007759;28;20742;-51
2023/04/20 11:14:11;;;;;;;10.40;4.30;;;9.10;99.90;;;;;;5016903;28;20391;-51
2023/04/20 11:16:37;;;;;;;10.13;4.25;;;8.80;99.90;;;;;;5027933;28;20490;-52
2023/04/20 11:19:04;;;;;;;11.15;4.75;;;8.70;99.90;;;;;;5027416;28;20494;-52
2023/04/20 11:21:41;;;;;;;9.05;4.10;;;8.70;99.90;;;;;;5027279;28;20383;-52
2023/04/20 11:24:27;;;;;;;9.30;4.57;;;8.70;99.90;;;;;;5008922;28;20397;-52
2023/04/20 11:26:54;;;;;;;11.40;4.57;;;8.60;99.90;;;;;;5008098;28;20568;-52
2023/04/20 11:29:33;;;;;;;10.35;4.60;;;8.70;1.00;;;;;;5005607;28;20399;-52
2023/04/20 11:32:05;;;;;;;10.82;4.70;;;8.80;1.00;;;;;;5007956;28;20389;-52
2023/04/20 11:34:36;;;;;;;10.93;5.40;;;8.80;99.90;;;;;;5007242;28;20389;-52
2023/04/20 11:37:07;;;;;;;18.15;5.50;;;8.80;99.90;;;;;;5008187;28;20399;-52
2023/04/20 11:39:33;;;;;;;11.70;5.23;;;8.90;1.00;;;;;;5007754;28;20782;-52
2023/04/20 11:41:59;;;;;;;12.43;5.55;;;10.50;1.00;;;;;;5008174;28;20864;-52
2023/04/20 11:44:26;;;;;;;11.82;5.10;;;9.00;1.00;;;;;;5006945;28;20385;-52
2023/04/20 11:46:53;;;;;;;10.85;4.90;;;9.00;60.20;;;;;;5008290;28;21173;-52
2023/04/20 11:49:20;;;;;;;12.68;5.93;;;8.90;1.00;;;;;;5007226;28;20419;-52
2023/04/20 11:51:46;;;;;;;11.05;5.20;;;8.90;1.00;;;;;;5007995;28;20376;-52
2023/04/20 11:54:13;;;;;;;13.00;5.55;;;8.90;1.00;;;;;;5007404;28;20369;-51
2023/04/20 11:56:40;;;;;;;13.47;5.33;;;8.90;1.00;;;;;;5007994;28;20715;-52
2023/04/20 11:59:07;;;;;;;13.27;5.70;;;9.00;1.00;;;;;;5007683;28;20425;-52
2023/04/20 12:01:32;;;;;;;12.52;5.63;;;9.50;99.90;;;;;;5007596;28;20380;-52
2023/04/20 12:04:00;;;;;;;12.60;5.30;;;9.10;99.90;;;;;;5007806;28;20464;-52
2023/04/20 12:06:30;;;;;;;14.35;6.43;;;9.20;1.00;;;;;;5007150;28;20389;-51
2023/04/20 12:08:56;;;;;;;14.70;5.60;;;9.20;1.00;;;;;;5008137;28;20409;-51
2023/04/20 12:11:22;;;;;;;12.57;5.80;;;9.40;1.00;;;;;;5005316;28;20397;-52
2023/04/20 12:13:47;;;;;;;13.60;6.13;;;9.40;1.00;;;;;;5007328;28;20396;-52
2023/04/20 12:16:14;;;;;;;12.02;5.80;;;9.40;1.00;;;;;;5007189;28;20380;-51
2023/04/20 12:18:40;;;;;;;14.20;6.40;;;9.20;1.00;;;;;;5009528;28;20495;-51
2023/04/20 12:21:06;;;;;;;13.68;6.10;;;9.10;1.00;;;;;;5009959;28;20547;-52
2023/04/20 12:23:32;;;;;;;10.68;5.65;;;9.20;1.00;;;;;;5010293;28;20396;-52
2023/04/20 12:25:58;;;;;;;16.03;7.63;;;9.20;17.80;;;;;;5008077;28;20393;-52
2023/04/20 12:28:24;;;;;;;23.02;11.27;;;9.40;1.00;;;;;;5009888;28;20399;-52
2023/04/20 12:30:50;;;;;;;23.17;10.23;;;9.10;99.90;;;;;;5006628;28;20948;-52
2023/04/20 12:33:16;;;;;;;17.92;8.30;;;9.10;99.90;;;;;;5005268;28;20503;-52
2023/04/20 12:35:43;;;;;;;20.13;13.40;;;9.40;99.90;;;;;;5010683;28;20475;-52
2023/04/20 12:38:09;;;;;;;15.15;7.60;;;9.30;99.90;;;;;;5009504;28;20475;-51
2023/04/20 12:40:35;;;;;;;12.80;6.77;;;9.40;99.90;;;;;;5002586;28;20950;-51
2023/04/20 12:43:00;;;;;;;12.30;6.20;;;9.40;99.90;;;;;;4999985;28;20411;-51
2023/04/20 12:45:26;;;;;;;13.57;6.00;;;9.30;1.00;;;;;;5010144;28;20454;-52